createdAt,value
2023-01-29T00:02:01.619Z,102275.69
2023-01-29T00:04:29.118Z,102267.91
2023-01-29T00:06:56.585Z,102267.72
2023-01-29T00:09:24.030Z,102265.34
2023-01-29T00:11:51.571Z,102265.78
2023-01-29T00:14:19.084Z,102274.34
2023-01-29T00:16:46.591Z,102273.66
2023-01-29T00:19:15.491Z,102269.53
2023-01-29T00:21:43.500Z,102280.16
2023-01-29T00:24:11.117Z,102268.03
2023-01-29T00:26:38.901Z,102259.28
2023-01-29T00:29:06.548Z,102263.47
2023-01-29T00:31:34.061Z,102263.25
2023-01-29T00:34:01.644Z,102257.22
2023-01-29T00:36:30.606Z,102249.09
2023-01-29T00:38:59.729Z,102256.25
2023-01-29T00:41:47.258Z,102244.59
2023-01-29T00:44:31.954Z,102243.25
2023-01-29T00:46:59.858Z,102235.50
2023-01-29T00:49:27.414Z,102229.59
2023-01-29T00:52:13.667Z,102234.91
2023-01-29T00:54:41.099Z,102233.91
2023-01-29T00:57:08.521Z,102247.94
2023-01-29T00:59:35.939Z,102243.44
2023-01-29T01:02:21.169Z,102251.47
2023-01-29T01:04:48.665Z,102253.97
2023-01-29T01:07:17.442Z,102243.34
2023-01-29T01:10:02.114Z,102249.47
2023-01-29T01:12:29.654Z,102236.41
2023-01-29T01:14:57.075Z,102246.94
2023-01-29T01:17:25.097Z,102242.81
2023-01-29T01:19:52.741Z,102236.44
2023-01-29T01:22:21.582Z,102240.13
2023-01-29T01:24:49.189Z,102238.16
2023-01-29T01:27:17.532Z,102247.19
2023-01-29T01:29:44.935Z,102237.50
2023-01-29T01:32:12.360Z,102232.44
2023-01-29T01:34:39.834Z,102237.66
2023-01-29T01:37:07.265Z,102230.22
2023-01-29T01:39:35.997Z,102235.19
2023-01-29T01:42:03.517Z,102236.53
2023-01-29T01:44:53.351Z,102246.09
2023-01-29T01:47:26.080Z,102247.94
2023-01-29T01:49:55.524Z,102244.53
2023-01-29T01:52:23.687Z,102244.19
2023-01-29T01:54:54.994Z,102243.13
2023-01-29T01:57:25.729Z,102230.94
2023-01-29T01:59:57.537Z,102237.28
2023-01-29T02:02:43.896Z,102234.22
2023-01-29T02:05:30.696Z,102217.41
2023-01-29T02:08:16.946Z,102211.47
2023-01-29T02:10:47.602Z,102209.50
2023-01-29T02:13:18.662Z,102204.69
2023-01-29T02:15:48.688Z,102207.91
2023-01-29T02:18:18.661Z,102222.88
2023-01-29T02:20:57.877Z,102222.47
2023-01-29T02:24:07.098Z,102210.41
2023-01-29T02:26:51.686Z,102200.13
2023-01-29T02:29:28.760Z,102201.00
2023-01-29T02:32:06.293Z,102203.56
2023-01-29T02:34:59.475Z,102202.50
2023-01-29T02:37:35.995Z,102201.69
2023-01-29T02:40:14.072Z,102204.88
2023-01-29T02:42:48.165Z,102198.66
2023-01-29T02:45:21.327Z,102199.09
2023-01-29T02:47:57.070Z,102206.44
2023-01-29T02:50:29.807Z,102199.50
2023-01-29T02:53:03.462Z,102198.38
2023-01-29T02:55:37.817Z,102188.88
2023-01-29T02:58:12.224Z,102181.56
2023-01-29T03:00:45.359Z,102188.81
2023-01-29T03:03:17.325Z,102191.97
2023-01-29T03:05:54.948Z,102193.66
2023-01-29T03:08:36.719Z,102189.38
2023-01-29T03:11:06.585Z,102186.56
2023-01-29T03:13:41.257Z,102185.00
2023-01-29T03:16:19.077Z,102174.38
2023-01-29T03:18:50.959Z,102184.22
2023-01-29T03:21:41.103Z,102190.16
2023-01-29T03:24:28.896Z,102187.94
2023-01-29T03:27:16.699Z,102183.16
2023-01-29T03:30:04.201Z,102178.97
2023-01-29T03:32:33.095Z,102174.44
2023-01-29T03:35:05.444Z,102164.94
2023-01-29T03:37:37.432Z,102164.19
2023-01-29T03:40:06.273Z,102159.56
2023-01-29T03:42:45.319Z,102156.63
2023-01-29T03:45:18.311Z,102150.34
2023-01-29T03:47:52.500Z,102142.28
2023-01-29T03:50:34.339Z,102136.13
2023-01-29T03:53:05.919Z,102134.31
2023-01-29T03:55:38.778Z,102129.19
2023-01-29T03:58:16.813Z,102113.94
2023-01-29T04:00:53.627Z,102115.00
2023-01-29T04:03:26.233Z,102105.88
2023-01-29T04:06:05.400Z,102100.84
2023-01-29T04:08:37.409Z,102096.38
2023-01-29T04:11:11.323Z,102092.38
2023-01-29T04:13:39.795Z,102089.09
2023-01-29T04:16:12.659Z,102089.06
2023-01-29T04:18:41.538Z,102087.31
2023-01-29T04:21:09.064Z,102077.94
2023-01-29T04:23:36.503Z,102079.13
2023-01-29T04:26:21.677Z,102076.78
2023-01-29T04:28:59.732Z,102073.47
2023-01-29T04:31:31.744Z,102068.34
2023-01-29T04:34:12.174Z,102058.84
2023-01-29T04:36:46.263Z,102055.94
2023-01-29T04:39:19.623Z,102058.97
2023-01-29T04:41:54.195Z,102062.84
2023-01-29T04:44:27.216Z,102070.06
2023-01-29T04:47:05.586Z,102076.22
2023-01-29T04:49:41.627Z,102063.25
2023-01-29T04:52:13.972Z,102067.66
2023-01-29T04:54:53.340Z,102072.22
2023-01-29T04:57:26.646Z,102066.94
2023-01-29T05:00:02.545Z,102067.72
2023-01-29T05:02:32.649Z,102070.06
2023-01-29T05:05:01.781Z,102062.47
2023-01-29T05:07:31.405Z,102070.81
2023-01-29T05:09:59.293Z,102078.03
2023-01-29T05:12:29.754Z,102066.06
2023-01-29T05:15:02.864Z,102073.47
2023-01-29T05:17:30.684Z,102075.34
2023-01-29T05:19:58.247Z,102072.84
2023-01-29T05:22:28.002Z,102068.59
2023-01-29T05:24:55.630Z,102071.97
2023-01-29T05:27:48.564Z,102072.06
2023-01-29T05:30:16.706Z,102076.25
2023-01-29T05:32:44.396Z,102083.28
2023-01-29T05:35:11.884Z,102076.16
2023-01-29T05:37:40.630Z,102083.22
2023-01-29T05:40:09.751Z,102071.84
2023-01-29T05:42:37.240Z,102079.00
2023-01-29T05:45:05.427Z,102074.16
2023-01-29T05:47:32.850Z,102084.69
2023-01-29T05:50:00.319Z,102080.31
2023-01-29T05:52:27.797Z,102083.28
2023-01-29T05:54:56.675Z,102088.41
2023-01-29T05:57:24.224Z,102089.91
2023-01-29T05:59:51.685Z,102086.94
2023-01-29T06:02:19.133Z,102091.59
2023-01-29T06:04:46.565Z,102090.50
2023-01-29T06:07:14.057Z,102091.94
2023-01-29T06:09:41.505Z,102096.97
2023-01-29T06:12:10.308Z,102093.19
2023-01-29T06:14:37.721Z,102103.81
2023-01-29T06:17:05.337Z,102100.03
2023-01-29T06:19:32.749Z,102110.41
2023-01-29T06:22:00.237Z,102106.72
2023-01-29T06:24:27.700Z,102098.75
2023-01-29T06:26:55.149Z,102089.47
2023-01-29T06:29:23.863Z,102095.13
2023-01-29T06:31:51.354Z,102096.75
2023-01-29T06:34:18.991Z,102098.22
2023-01-29T06:36:46.415Z,102094.50
2023-01-29T06:39:13.981Z,102093.06
2023-01-29T06:41:41.421Z,102084.38
2023-01-29T06:44:08.956Z,102086.94
2023-01-29T06:46:37.744Z,102091.38
2023-01-29T06:49:05.195Z,102090.50
2023-01-29T06:51:32.665Z,102098.66
2023-01-29T06:54:00.512Z,102117.75
2023-01-29T06:56:28.210Z,102107.00
2023-01-29T06:58:55.726Z,102097.06
2023-01-29T07:01:35.077Z,102102.16
2023-01-29T07:04:05.210Z,102099.13
2023-01-29T07:06:32.749Z,102094.97
2023-01-29T07:09:00.231Z,102088.22
2023-01-29T07:11:27.655Z,102089.81
2023-01-29T07:13:55.032Z,102095.31
2023-01-29T07:16:23.428Z,102080.13
2023-01-29T07:18:50.912Z,102081.56
2023-01-29T07:21:19.696Z,102080.91
2023-01-29T07:23:47.189Z,102079.41
2023-01-29T07:26:14.667Z,102086.13
2023-01-29T07:28:42.220Z,102102.31
2023-01-29T07:31:13.380Z,102107.38
2023-01-29T07:33:40.906Z,102098.00
2023-01-29T07:36:09.207Z,102087.88
2023-01-29T07:38:38.028Z,102094.75
2023-01-29T07:41:05.696Z,102093.41
2023-01-29T07:43:33.454Z,102089.91
2023-01-29T07:46:03.248Z,102073.59
2023-01-29T07:48:31.199Z,102059.56
2023-01-29T07:50:59.329Z,102052.34
2023-01-29T07:53:28.092Z,102048.31
2023-01-29T07:55:57.307Z,102043.53
2023-01-29T07:58:24.783Z,102044.59
2023-01-29T08:00:52.362Z,102053.59
2023-01-29T08:03:21.136Z,102065.34
2023-01-29T08:05:48.779Z,102055.06
2023-01-29T08:08:16.423Z,102053.03
2023-01-29T08:10:44.234Z,102047.41
2023-01-29T08:13:13.007Z,102044.47
2023-01-29T08:15:44.114Z,102043.28
2023-01-29T08:18:11.671Z,102035.97
2023-01-29T08:20:39.391Z,102040.53
2023-01-29T08:23:08.113Z,102052.28
2023-01-29T08:25:36.642Z,102048.22
2023-01-29T08:28:05.438Z,102044.59
2023-01-29T08:30:35.544Z,102053.84
2023-01-29T08:33:04.847Z,102037.13
2023-01-29T08:35:32.543Z,102040.22
2023-01-29T08:38:02.125Z,102039.34
2023-01-29T08:40:31.616Z,102042.59
2023-01-29T08:43:02.093Z,102042.81
2023-01-29T08:45:30.804Z,102038.09
2023-01-29T08:47:59.542Z,102038.44
2023-01-29T08:50:27.261Z,102036.13
2023-01-29T08:52:58.716Z,102039.81
2023-01-29T08:55:26.753Z,102048.34
2023-01-29T08:57:54.471Z,102032.13
2023-01-29T09:00:22.611Z,102036.63
2023-01-29T09:02:50.027Z,102034.31
2023-01-29T09:05:19.595Z,102037.06
2023-01-29T09:07:47.239Z,102034.13
2023-01-29T09:10:14.757Z,102026.22
2023-01-29T09:12:42.363Z,102025.25
2023-01-29T09:15:10.911Z,102033.03
2023-01-29T09:17:38.326Z,102037.41
2023-01-29T09:20:06.999Z,102028.03
2023-01-29T09:22:36.180Z,102022.44
2023-01-29T09:25:03.678Z,102035.44
2023-01-29T09:27:31.099Z,102026.47
2023-01-29T09:29:58.615Z,102028.78
2023-01-29T09:32:52.207Z,102027.19
2023-01-29T09:35:13.972Z,102010.25
2023-01-29T09:37:42.884Z,102020.16
2023-01-29T09:40:19.189Z,102013.34
2023-01-29T09:42:53.316Z,102010.81
2023-01-29T09:45:24.964Z,102017.34
2023-01-29T09:47:54.471Z,102002.66
2023-01-29T09:50:27.323Z,102000.75
2023-01-29T09:52:59.897Z,101992.13
2023-01-29T09:55:29.760Z,101990.25
2023-01-29T09:57:59.352Z,101991.00
2023-01-29T10:00:35.022Z,101984.56
2023-01-29T10:03:28.325Z,101973.56
2023-01-29T10:06:11.721Z,101981.13
2023-01-29T10:09:16.109Z,101975.50
2023-01-29T10:11:52.694Z,101976.63
2023-01-29T10:14:28.890Z,101960.69
2023-01-29T10:17:09.149Z,101956.22
2023-01-29T10:19:57.673Z,101960.69
2023-01-29T10:22:53.644Z,101957.16
2023-01-29T10:25:24.172Z,101966.78
2023-01-29T10:27:54.925Z,101979.25
2023-01-29T10:30:31.605Z,101975.81
2023-01-29T10:33:02.341Z,101979.00
2023-01-29T10:35:34.108Z,101974.00
2023-01-29T10:38:15.632Z,101972.84
2023-01-29T10:40:50.093Z,101958.09
2023-01-29T10:43:23.038Z,101956.09
2023-01-29T10:45:58.201Z,101937.34
2023-01-29T10:48:44.002Z,101939.88
2023-01-29T10:51:23.774Z,101935.66
2023-01-29T10:54:03.096Z,101935.81
2023-01-29T10:56:43.975Z,101925.88
2023-01-29T10:59:32.015Z,101923.50
2023-01-29T11:02:00.182Z,101904.78
2023-01-29T11:04:29.328Z,101895.13
2023-01-29T11:06:57.390Z,101897.44
2023-01-29T11:09:33.309Z,101902.75
2023-01-29T11:12:06.796Z,101891.88
2023-01-29T11:14:43.936Z,101886.50
2023-01-29T11:17:16.650Z,101892.66
2023-01-29T11:19:46.553Z,101892.06
2023-01-29T11:22:16.178Z,101885.63
2023-01-29T11:24:43.680Z,101862.25
2023-01-29T11:27:25.915Z,101870.91
2023-01-29T11:29:54.523Z,101875.84
2023-01-29T11:32:31.040Z,101868.22
2023-01-29T11:35:00.538Z,101861.72
2023-01-29T11:37:37.099Z,101856.84
2023-01-29T11:40:30.390Z,101864.88
2023-01-29T11:43:23.480Z,101847.72
2023-01-29T11:45:54.539Z,101844.16
2023-01-29T11:48:24.098Z,101838.34
2023-01-29T11:50:57.882Z,101849.31
2023-01-29T11:53:34.923Z,101834.81
2023-01-29T11:56:06.565Z,101836.19
2023-01-29T11:58:45.129Z,101848.06
2023-01-29T12:01:13.966Z,101828.03
2023-01-29T12:03:44.651Z,101821.59
2023-01-29T12:06:19.698Z,101829.97
2023-01-29T12:08:55.749Z,101829.47
2023-01-29T12:11:29.079Z,101810.38
2023-01-29T12:13:59.650Z,101807.81
2023-01-29T12:16:32.910Z,101801.22
2023-01-29T12:19:10.052Z,101814.59
2023-01-29T12:21:44.381Z,101810.78
2023-01-29T12:24:23.953Z,101804.75
2023-01-29T12:26:56.047Z,101803.09
2023-01-29T12:29:34.746Z,101793.78
2023-01-29T12:32:13.156Z,101797.72
2023-01-29T12:34:47.572Z,101787.88
2023-01-29T12:37:22.768Z,101788.47
2023-01-29T12:39:51.976Z,101776.09
2023-01-29T12:42:22.505Z,101772.25
2023-01-29T12:44:53.995Z,101771.38
2023-01-29T12:47:27.237Z,101775.75
2023-01-29T12:49:58.140Z,101770.97
2023-01-29T12:52:37.897Z,101773.88
2023-01-29T12:55:12.399Z,101770.91
2023-01-29T12:57:45.581Z,101774.75
2023-01-29T13:00:19.336Z,101771.22
2023-01-29T13:02:51.108Z,101764.75
2023-01-29T13:05:24.156Z,101759.91
2023-01-29T13:07:57.701Z,101759.84
2023-01-29T13:10:30.703Z,101758.91
2023-01-29T13:13:02.575Z,101758.97
2023-01-29T13:15:36.104Z,101756.19
2023-01-29T13:18:24.461Z,101753.78
2023-01-29T13:20:52.634Z,101758.47
2023-01-29T13:23:23.040Z,101744.41
2023-01-29T13:25:52.745Z,101734.97
2023-01-29T13:28:22.360Z,101746.22
2023-01-29T13:31:13.696Z,101743.00
2023-01-29T13:33:42.908Z,101745.41
2023-01-29T13:36:17.252Z,101746.00
2023-01-29T13:38:45.973Z,101743.03
2023-01-29T13:41:15.767Z,101737.38
2023-01-29T13:43:49.670Z,101744.47
2023-01-29T13:46:21.335Z,101741.44
2023-01-29T13:48:52.196Z,101726.72
2023-01-29T13:51:23.593Z,101729.69
2023-01-29T13:53:56.664Z,101735.00
2023-01-29T13:56:47.819Z,101743.63
2023-01-29T13:59:23.821Z,101734.66
2023-01-29T14:02:23.488Z,101722.72
2023-01-29T14:04:51.091Z,101735.75
2023-01-29T14:07:48.617Z,101717.78
2023-01-29T14:10:18.040Z,101719.13
2023-01-29T14:12:47.970Z,101704.88
2023-01-29T14:15:21.156Z,101714.97
2023-01-29T14:18:07.195Z,101717.91
2023-01-29T14:20:45.708Z,101713.78
2023-01-29T14:23:25.061Z,101706.38
2023-01-29T14:25:52.732Z,101711.28
2023-01-29T14:28:24.386Z,101714.66
2023-01-29T14:30:53.112Z,101715.31
2023-01-29T14:33:28.908Z,101709.94
2023-01-29T14:35:58.888Z,101701.94
2023-01-29T14:38:29.466Z,101698.03
2023-01-29T14:41:06.772Z,101699.75
2023-01-29T14:43:34.335Z,101702.09
2023-01-29T14:46:34.981Z,101700.56
2023-01-29T14:49:03.764Z,101684.72
2023-01-29T14:51:37.572Z,101685.41
2023-01-29T14:54:14.997Z,101689.47
2023-01-29T14:56:49.433Z,101675.13
2023-01-29T14:59:21.801Z,101678.38
2023-01-29T15:01:54.016Z,101667.34
2023-01-29T15:04:27.815Z,101670.78
2023-01-29T15:07:01.776Z,101673.66
2023-01-29T15:09:37.316Z,101681.50
2023-01-29T15:12:17.263Z,101672.09
2023-01-29T15:14:51.542Z,101671.66
2023-01-29T15:17:26.583Z,101676.59
2023-01-29T15:19:56.696Z,101671.38
2023-01-29T15:22:26.057Z,101664.34
2023-01-29T15:25:08.920Z,101662.16
2023-01-29T15:27:36.534Z,101658.59
2023-01-29T15:30:08.177Z,101660.53
2023-01-29T15:32:38.372Z,101648.16
2023-01-29T15:35:10.997Z,101643.78
2023-01-29T15:37:38.908Z,101640.94
2023-01-29T15:40:16.203Z,101645.78
2023-01-29T15:42:46.577Z,101643.44
2023-01-29T15:45:25.848Z,101639.81
2023-01-29T15:47:55.398Z,101627.41
2023-01-29T15:50:24.639Z,101640.66
2023-01-29T15:52:54.064Z,101632.06
2023-01-29T15:55:23.211Z,101621.00
2023-01-29T15:57:51.170Z,101627.53
2023-01-29T16:00:23.931Z,101619.94
2023-01-29T16:02:51.870Z,101613.63
2023-01-29T16:05:22.958Z,101609.22
2023-01-29T16:07:52.722Z,101602.19
2023-01-29T16:10:21.839Z,101606.44
2023-01-29T16:12:52.156Z,101593.06
2023-01-29T16:15:29.829Z,101592.66
2023-01-29T16:17:57.990Z,101601.31
2023-01-29T16:20:34.276Z,101602.22
2023-01-29T16:23:03.281Z,101597.69
2023-01-29T16:25:31.542Z,101600.25
2023-01-29T16:27:59.326Z,101600.59
2023-01-29T16:30:28.669Z,101600.53
2023-01-29T16:33:03.495Z,101601.25
2023-01-29T16:35:31.176Z,101596.59
2023-01-29T16:38:03.597Z,101588.81
2023-01-29T16:40:34.020Z,101593.38
2023-01-29T16:43:37.473Z,101597.50
2023-01-29T16:46:19.040Z,101594.75
2023-01-29T16:48:47.621Z,101596.19
2023-01-29T16:51:18.442Z,101590.63
2023-01-29T16:53:56.298Z,101588.00
2023-01-29T16:56:26.801Z,101595.44
2023-01-29T16:58:55.983Z,101593.13
2023-01-29T17:01:26.979Z,101592.25
2023-01-29T17:04:00.158Z,101590.97
2023-01-29T17:06:28.679Z,101573.50
2023-01-29T17:08:56.647Z,101577.09
2023-01-29T17:11:31.070Z,101576.16
2023-01-29T17:13:58.586Z,101572.88
2023-01-29T17:16:29.001Z,101569.31
2023-01-29T17:18:56.749Z,101558.97
2023-01-29T17:21:24.743Z,101567.94
2023-01-29T17:23:52.759Z,101561.78
2023-01-29T17:26:21.420Z,101564.38
2023-01-29T17:28:52.636Z,101556.78
2023-01-29T17:31:20.243Z,101550.63
2023-01-29T17:33:48.370Z,101552.53
2023-01-29T17:36:17.669Z,101538.50
2023-01-29T17:38:46.011Z,101545.78
2023-01-29T17:41:19.551Z,101541.09
2023-01-29T17:43:47.048Z,101538.84
2023-01-29T17:46:17.800Z,101527.22
2023-01-29T17:48:49.057Z,101514.47
2023-01-29T17:51:18.368Z,101513.75
2023-01-29T17:53:47.106Z,101517.16
2023-01-29T17:56:17.788Z,101506.81
2023-01-29T17:58:45.307Z,101505.97
2023-01-29T18:01:12.759Z,101496.88
2023-01-29T18:03:41.779Z,101493.19
2023-01-29T18:06:10.267Z,101486.91
2023-01-29T18:08:39.629Z,101487.72
2023-01-29T18:11:07.190Z,101479.28
2023-01-29T18:13:36.039Z,101472.63
2023-01-29T18:16:03.530Z,101471.34
2023-01-29T18:18:31.014Z,101472.81
2023-01-29T18:20:59.796Z,101466.88
2023-01-29T18:23:29.380Z,101465.06
2023-01-29T18:25:57.711Z,101465.31
2023-01-29T18:28:26.031Z,101461.34
2023-01-29T18:30:53.517Z,101470.06
2023-01-29T18:33:21.074Z,101466.22
2023-01-29T18:35:48.983Z,101465.50
2023-01-29T18:38:18.121Z,101456.75
2023-01-29T18:40:45.600Z,101449.75
2023-01-29T18:43:14.092Z,101451.00
2023-01-29T18:45:41.914Z,101441.44
2023-01-29T18:48:09.710Z,101442.94
2023-01-29T18:50:37.341Z,101449.56
2023-01-29T18:53:05.119Z,101455.69
2023-01-29T18:55:34.062Z,101451.25
2023-01-29T18:58:26.714Z,101450.59
2023-01-29T19:00:48.974Z,101441.03
2023-01-29T19:03:16.386Z,101440.06
2023-01-29T19:05:44.038Z,101432.13
2023-01-29T19:08:11.767Z,101433.19
2023-01-29T19:10:41.532Z,101420.00
2023-01-29T19:13:09.212Z,101422.16
2023-01-29T19:15:36.993Z,101423.09
2023-01-29T19:18:04.652Z,101427.38
2023-01-29T19:20:32.058Z,101407.16
2023-01-29T19:22:59.555Z,101404.03
2023-01-29T19:25:27.014Z,101402.16
2023-01-29T19:27:55.793Z,101397.81
2023-01-29T19:30:23.349Z,101386.28
2023-01-29T19:32:50.779Z,101388.47
2023-01-29T19:35:18.464Z,101386.28
2023-01-29T19:37:46.254Z,101375.19
2023-01-29T19:40:14.752Z,101370.53
2023-01-29T19:42:42.950Z,101363.28
2023-01-29T19:45:11.993Z,101369.28
2023-01-29T19:47:40.563Z,101362.75
2023-01-29T19:50:09.341Z,101358.78
2023-01-29T19:52:52.277Z,101352.06
2023-01-29T19:55:21.276Z,101352.47
2023-01-29T19:57:49.168Z,101344.41
2023-01-29T20:00:19.586Z,101353.66
2023-01-29T20:02:47.085Z,101343.53
2023-01-29T20:05:18.289Z,101344.81
2023-01-29T20:07:46.039Z,101341.81
2023-01-29T20:10:17.250Z,101342.41
2023-01-29T20:12:45.435Z,101334.88
2023-01-29T20:15:13.415Z,101325.84
2023-01-29T20:17:43.467Z,101316.59
2023-01-29T20:20:11.931Z,101313.28
2023-01-29T20:22:39.343Z,101309.94
2023-01-29T20:25:07.727Z,101309.41
2023-01-29T20:27:35.345Z,101296.88
2023-01-29T20:30:02.783Z,101296.97
2023-01-29T20:32:31.676Z,101294.03
2023-01-29T20:35:00.445Z,101285.41
2023-01-29T20:37:28.032Z,101293.13
2023-01-29T20:39:55.772Z,101281.63
2023-01-29T20:42:23.201Z,101281.13
2023-01-29T20:44:50.644Z,101274.84
2023-01-29T20:47:18.120Z,101264.09
2023-01-29T20:49:45.640Z,101260.38
2023-01-29T20:52:14.352Z,101256.97
2023-01-29T20:54:41.783Z,101252.59
2023-01-29T20:57:09.293Z,101253.63
2023-01-29T20:59:36.701Z,101238.28
2023-01-29T21:02:04.209Z,101237.44
2023-01-29T21:04:32.059Z,101240.69
2023-01-29T21:06:59.631Z,101227.88
2023-01-29T21:09:28.416Z,101217.66
2023-01-29T21:11:55.933Z,101201.22
2023-01-29T21:14:23.448Z,101192.78
2023-01-29T21:16:50.966Z,101195.09
2023-01-29T21:19:18.401Z,101211.28
2023-01-29T21:21:45.916Z,101195.72
2023-01-29T21:24:14.980Z,101180.81
2023-01-29T21:26:43.780Z,101176.72
2023-01-29T21:29:11.853Z,101154.75
2023-01-29T21:31:39.473Z,101155.56
2023-01-29T21:34:06.924Z,101144.47
2023-01-29T21:36:35.551Z,101156.09
2023-01-29T21:39:16.346Z,101135.69
2023-01-29T21:42:02.600Z,101127.25
2023-01-29T21:44:30.190Z,101125.38
2023-01-29T21:46:57.635Z,101121.09
2023-01-29T21:49:25.330Z,101115.03
2023-01-29T21:51:53.037Z,101125.22
2023-01-29T21:54:20.451Z,101126.00
2023-01-29T21:56:49.186Z,101116.34
2023-01-29T21:59:16.565Z,101125.25
2023-01-29T22:01:44.005Z,101117.31
2023-01-29T22:04:11.588Z,101129.03
2023-01-29T22:06:38.993Z,101122.47
2023-01-29T22:09:06.421Z,101119.34
2023-01-29T22:11:34.056Z,101111.88
2023-01-29T22:14:02.836Z,101113.00
2023-01-29T22:16:30.356Z,101115.34
2023-01-29T22:18:57.822Z,101104.88
2023-01-29T22:21:25.286Z,101102.28
2023-01-29T22:23:52.725Z,101094.25
2023-01-29T22:26:20.200Z,101094.47
2023-01-29T22:28:47.641Z,101085.78
2023-01-29T22:31:16.414Z,101062.44
2023-01-29T22:33:44.170Z,101055.78
2023-01-29T22:36:11.659Z,101058.19
2023-01-29T22:38:39.056Z,101062.66
2023-01-29T22:41:06.488Z,101052.84
2023-01-29T22:43:33.890Z,101049.63
2023-01-29T22:46:01.572Z,101045.97
2023-01-29T22:48:30.733Z,101043.69
2023-01-29T22:51:09.871Z,101030.19
2023-01-29T22:53:38.391Z,101024.59
2023-01-29T22:56:07.455Z,101009.81
2023-01-29T22:58:35.295Z,101011.19
2023-01-29T23:01:03.079Z,101008.13
2023-01-29T23:03:31.849Z,101003.84
2023-01-29T23:05:59.354Z,100991.66
2023-01-29T23:08:26.836Z,100990.25
2023-01-29T23:10:54.303Z,100983.31
2023-01-29T23:13:21.772Z,100996.72
2023-01-29T23:16:00.283Z,100991.75
2023-01-29T23:18:27.964Z,100980.69
2023-01-29T23:20:58.693Z,100966.66
2023-01-29T23:23:26.250Z,100960.94
2023-01-29T23:26:16.019Z,100950.75
2023-01-29T23:28:43.805Z,100958.41
2023-01-29T23:31:11.780Z,100949.47
2023-01-29T23:33:39.276Z,100941.19
2023-01-29T23:36:09.603Z,100943.84
2023-01-29T23:38:37.068Z,100941.47
2023-01-29T23:41:04.633Z,100928.81
2023-01-29T23:43:32.170Z,100929.81
2023-01-29T23:45:59.738Z,100926.59
2023-01-29T23:48:27.124Z,100926.75
2023-01-29T23:50:54.604Z,100920.22
2023-01-29T23:53:23.380Z,100916.84
2023-01-29T23:55:58.300Z,100922.16
2023-01-29T23:58:26.098Z,100903.91
